ADDS METAR Data INFO
IDs: Format: Raw Decoded Include TAF

Data at: 0857 UTC 18 Aug 2017

METAR for:KSNS (Salinas Muni, CA, US)
Text:KSNS 180853Z AUTO 29003KT 9SM CLR 16/14 A3001 RMK AO2 SLP171 T01560139 58002
Temperature: 15.6°C ( 60°F)
Dewpoint: 13.9°C ( 57°F) [RH = 90%]
Pressure (altimeter):30.01 inches Hg (1016.3 mb) [Sea level pressure: 1017.1 mb]
Winds:from the WNW (290 degrees) at 3 MPH (3 knots; 1.5 m/s)
Visibility: 9 sm ( 14 km)
Ceiling:at least 12,000 feet AGL
Clouds:sky clear below 12,000 feet AGL
QC Flag:automated observation with no human augmentation
Text:KSNS 180753Z AUTO 29004KT 10SM CLR 16/14 A3002 RMK AO2 SLP173 T01610139 402220156
Temperature: 16.1°C ( 61°F)
Dewpoint: 13.9°C ( 57°F) [RH = 87%]
Pressure (altimeter):30.02 inches Hg (1016.7 mb) [Sea level pressure: 1017.3 mb]
Winds:from the WNW (290 degrees) at 5 MPH (4 knots; 2.1 m/s)
Visibility:10 or more sm (16+ km)
Ceiling:at least 12,000 feet AGL
Clouds:sky clear below 12,000 feet AGL
QC Flag:automated observation with no human augmentation
Text:KSNS 180653Z AUTO 29005KT 10SM CLR 16/14 A3002 RMK AO2 SLP174 T01610139
Temperature: 16.1°C ( 61°F)
Dewpoint: 13.9°C ( 57°F) [RH = 87%]
Pressure (altimeter):30.02 inches Hg (1016.7 mb) [Sea level pressure: 1017.4 mb]
Winds:from the WNW (290 degrees) at 6 MPH (5 knots; 2.6 m/s)
Visibility:10 or more sm (16+ km)
Ceiling:at least 12,000 feet AGL
Clouds:sky clear below 12,000 feet AGL
QC Flag:automated observation with no human augmentation
Text:KSNS 180553Z AUTO 30007KT 10SM CLR 17/14 A3002 RMK AO2 SLP174 T01670139 10211 20167 51008
Temperature: 16.7°C ( 62°F)
Dewpoint: 13.9°C ( 57°F) [RH = 84%]
Pressure (altimeter):30.02 inches Hg (1016.7 mb) [Sea level pressure: 1017.4 mb]
Winds:from the WNW (300 degrees) at 8 MPH (7 knots; 3.6 m/s)
Visibility:10 or more sm (16+ km)
Ceiling:at least 12,000 feet AGL
Clouds:sky clear below 12,000 feet AGL
QC Flag:automated observation with no human augmentation
Text:KSNS 180453Z AUTO 30008KT 10SM CLR 17/13 A3001 RMK AO2 SLP172 T01670133
Temperature: 16.7°C ( 62°F)
Dewpoint: 13.3°C ( 56°F) [RH = 80%]
Pressure (altimeter):30.01 inches Hg (1016.3 mb) [Sea level pressure: 1017.2 mb]
Winds:from the WNW (300 degrees) at 9 MPH (8 knots; 4.1 m/s)
Visibility:10 or more sm (16+ km)
Ceiling:at least 12,000 feet AGL
Clouds:sky clear below 12,000 feet AGL
QC Flag:automated observation with no human augmentation
Text:KSNS 180353Z AUTO 30008KT 10SM CLR 17/13 A3000 RMK AO2 SLP169 T01670133
Temperature: 16.7°C ( 62°F)
Dewpoint: 13.3°C ( 56°F) [RH = 80%]
Pressure (altimeter):30.00 inches Hg (1016.0 mb) [Sea level pressure: 1016.9 mb]
Winds:from the WNW (300 degrees) at 9 MPH (8 knots; 4.1 m/s)
Visibility:10 or more sm (16+ km)
Ceiling:at least 12,000 feet AGL
Clouds:sky clear below 12,000 feet AGL
QC Flag:automated observation with no human augmentation
Text:KSNS 180253Z AUTO 29010KT 10SM CLR 17/13 A2999 RMK AO2 SLP165 T01720133 53005
Temperature: 17.2°C ( 63°F)
Dewpoint: 13.3°C ( 56°F) [RH = 78%]
Pressure (altimeter):29.99 inches Hg (1015.7 mb) [Sea level pressure: 1016.5 mb]
Winds:from the WNW (290 degrees) at 12 MPH (10 knots; 5.1 m/s)
Visibility:10 or more sm (16+ km)
Ceiling:at least 12,000 feet AGL
Clouds:sky clear below 12,000 feet AGL
QC Flag:automated observation with no human augmentation
Text:KSNS 180153Z 29011KT 10SM CLR 19/14 A2998 RMK AO2 SLP161 T01890139
Temperature: 18.9°C ( 66°F)
Dewpoint: 13.9°C ( 57°F) [RH = 73%]
Pressure (altimeter):29.98 inches Hg (1015.3 mb) [Sea level pressure: 1016.1 mb]
Winds:from the WNW (290 degrees) at 13 MPH (11 knots; 5.7 m/s)
Visibility:10 or more sm (16+ km)
Ceiling:at least 12,000 feet AGL
Clouds:sky clear below 12,000 feet AGL
Text:KSNS 180053Z 30011KT 10SM CLR 20/14 A2998 RMK AO2 SLP160 T02000139
Temperature: 20.0°C ( 68°F)
Dewpoint: 13.9°C ( 57°F) [RH = 68%]
Pressure (altimeter):29.98 inches Hg (1015.3 mb) [Sea level pressure: 1016.0 mb]
Winds:from the WNW (300 degrees) at 13 MPH (11 knots; 5.7 m/s)
Visibility:10 or more sm (16+ km)
Ceiling:at least 12,000 feet AGL
Clouds:sky clear below 12,000 feet AGL
Text:KSNS 172353Z 29012KT 10SM CLR 21/14 A2998 RMK AO2 SLP160 T02060139 10222 20194 56013
Temperature: 20.6°C ( 69°F)
Dewpoint: 13.9°C ( 57°F) [RH = 65%]
Pressure (altimeter):29.98 inches Hg (1015.3 mb) [Sea level pressure: 1016.0 mb]
Winds:from the WNW (290 degrees) at 14 MPH (12 knots; 6.2 m/s)
Visibility:10 or more sm (16+ km)
Ceiling:at least 12,000 feet AGL
Clouds:sky clear below 12,000 feet AGL
Text:KSNS 172253Z 29013KT 10SM CLR 22/14 A2999 RMK AO2 SLP163 T02170139
Temperature: 21.7°C ( 71°F)
Dewpoint: 13.9°C ( 57°F) [RH = 61%]
Pressure (altimeter):29.99 inches Hg (1015.7 mb) [Sea level pressure: 1016.3 mb]
Winds:from the WNW (290 degrees) at 15 MPH (13 knots; 6.7 m/s)
Visibility:10 or more sm (16+ km)
Ceiling:at least 12,000 feet AGL
Clouds:sky clear below 12,000 feet AGL
Text:KSNS 172153Z 27012KT 10SM CLR 22/14 A3000 RMK AO2 SLP168 T02170139
Temperature: 21.7°C ( 71°F)
Dewpoint: 13.9°C ( 57°F) [RH = 61%]
Pressure (altimeter):30.00 inches Hg (1016.0 mb) [Sea level pressure: 1016.8 mb]
Winds:from the W (270 degrees) at 14 MPH (12 knots; 6.2 m/s)
Visibility:10 or more sm (16+ km)
Ceiling:at least 12,000 feet AGL
Clouds:sky clear below 12,000 feet AGL